الصفحة الرئيسية
METAR-TAF:

METAR-TAF

مطار :

قازان, روسيا

دائرة عرض: 55-47N, خط طول: 049-12E, ارتفاع: 125 متر

مراقبة الطقس الحالي

تاريخ ووقت الإصدار 17 دقيقة قبل الساعة 14:00UTC
ريح 6 عقدة من الشمال, الاتجاه يتراوح بين الشمال الغربي و الشمال/الشمال الشرقي
درجة الحرارة 29°درجة مئوية
الرطوبة 48%
ضغط 1015 hPa
الرؤية 10 كم أو أكثر
الغيوم لا تقل 1500 م ولا وجود لمزنة ركامية السحاب الأسود

METAR: UWKD 161400Z 35003MPS 320V030 CAVOK 29/17 Q1015 R29/CLRD70 NOSIG RMK QFE750/1000

زمن: 17:17 (14:17 UTC)

توقعات

تاريخ ووقت الإصدار 1ساعة و 24 دقيقة قبل الساعة 12:53UTC
التوقعات صالحة من16 الساعة 13 UTC إلى 17 الساعة 12 UTC
ريح 6 عقدة من الشمال الشرقي
الرؤية 10 كم أو أكثر
غيوم متفرقة على ارتفاع 2000 قدم
نظرية الاحتمالات 40% :
مؤقت
من 17 الساعة 09 UTC إلى 17 الساعة 12 UTC
ريح 35 عقدةمن اتجاهات متغيرة
الرؤية: 2000 متر
غيوم مفككة على ارتفاع 3000 قدم, مزنة ركامية.
عاصفة رعدية, مطر, برَد, عاصفة مفاجئة,

TAF: UWKD 161253Z 1613/1712 04003MPS 9999 SCT020 TX29/1711Z TN19/1701Z PROB40 TEMPO 1709/1712 VRB18MPS 2000 TSRAGR SQ BKN030CB

أرصاد الطقس والتوقعات من أكثر من 4000 مطار (تقارير الطقس للمطار METAR والتنبؤ بالطقس بالمطارTAF).

المحطات المتاحة هي النقط الصفراء والحمراء على الخريطة.

حرك المؤشر فوق النقطة لمعرفة اسم المحطة.

ثم انقر لمعرفة أرصاد وتوقعات الطقس.

لتغيير الخارطة: اضغط على الأزرار الخضراء مع رمز الصليب الأسود للتكبير. على الزر الأخضر مع شرطة للتصغير، أو على الأسهم الخضراء للخرائط المجاورة.


METAR-TAF: